sensor_id;sensor_type;location;lat;lon;timestamp;P1;durP1;ratioP1;P2;durP2;ratioP2
26540;SDS011;14206;50.202;10.948;2023-04-06T00:00:45;2.47;;;2.17;;
26540;SDS011;14206;50.202;10.948;2023-04-06T00:03:14;2.83;;;2.30;;
26540;SDS011;14206;50.202;10.948;2023-04-06T00:05:41;2.90;;;2.22;;
26540;SDS011;14206;50.202;10.948;2023-04-06T00:08:08;2.70;;;2.40;;
26540;SDS011;14206;50.202;10.948;2023-04-06T00:10:35;3.45;;;2.28;;
26540;SDS011;14206;50.202;10.948;2023-04-06T00:13:02;2.67;;;2.28;;
26540;SDS011;14206;50.202;10.948;2023-04-06T00:15:29;3.42;;;2.25;;
26540;SDS011;14206;50.202;10.948;2023-04-06T00:17:56;2.53;;;2.20;;
26540;SDS011;14206;50.202;10.948;2023-04-06T00:20:23;3.83;;;2.40;;
26540;SDS011;14206;50.202;10.948;2023-04-06T00:22:50;2.67;;;2.10;;
26540;SDS011;14206;50.202;10.948;2023-04-06T00:25:17;3.38;;;2.15;;
26540;SDS011;14206;50.202;10.948;2023-04-06T00:27:44;2.58;;;2.38;;
26540;SDS011;14206;50.202;10.948;2023-04-06T00:30:11;4.13;;;2.42;;
26540;SDS011;14206;50.202;10.948;2023-04-06T00:32:38;2.83;;;2.45;;
26540;SDS011;14206;50.202;10.948;2023-04-06T00:35:05;2.88;;;2.30;;
26540;SDS011;14206;50.202;10.948;2023-04-06T00:37:32;2.72;;;2.20;;
26540;SDS011;14206;50.202;10.948;2023-04-06T00:39:59;3.92;;;2.55;;
26540;SDS011;14206;50.202;10.948;2023-04-06T00:42:27;3.03;;;2.28;;
26540;SDS011;14206;50.202;10.948;2023-04-06T00:44:54;3.47;;;2.50;;
26540;SDS011;14206;50.202;10.948;2023-04-06T00:47:23;3.33;;;2.60;;
26540;SDS011;14206;50.202;10.948;2023-04-06T00:49:53;3.08;;;2.40;;
26540;SDS011;14206;50.202;10.948;2023-04-06T00:52:21;2.78;;;2.15;;
26540;SDS011;14206;50.202;10.948;2023-04-06T00:54:49;2.47;;;2.25;;
26540;SDS011;14206;50.202;10.948;2023-04-06T00:57:18;3.08;;;2.22;;
26540;SDS011;14206;50.202;10.948;2023-04-06T00:59:51;2.38;;;1.85;;
26540;SDS011;14206;50.202;10.948;2023-04-06T01:02:19;2.60;;;2.03;;
26540;SDS011;14206;50.202;10.948;2023-04-06T01:04:49;3.08;;;2.17;;
26540;SDS011;14206;50.202;10.948;2023-04-06T01:07:32;2.75;;;1.88;;
26540;SDS011;14206;50.202;10.948;2023-04-06T01:10:07;2.50;;;2.17;;
26540;SDS011;14206;50.202;10.948;2023-04-06T01:12:35;2.53;;;2.13;;
26540;SDS011;14206;50.202;10.948;2023-04-06T01:15:09;2.43;;;2.10;;
26540;SDS011;14206;50.202;10.948;2023-04-06T01:17:40;2.97;;;2.30;;
26540;SDS011;14206;50.202;10.948;2023-04-06T01:20:12;3.22;;;2.28;;
26540;SDS011;14206;50.202;10.948;2023-04-06T01:22:39;4.03;;;2.33;;
26540;SDS011;14206;50.202;10.948;2023-04-06T01:25:07;2.80;;;2.30;;
26540;SDS011;14206;50.202;10.948;2023-04-06T01:28:03;2.95;;;2.10;;
26540;SDS011;14206;50.202;10.948;2023-04-06T01:31:06;2.25;;;2.05;;
26540;SDS011;14206;50.202;10.948;2023-04-06T01:33:44;2.45;;;2.00;;
26540;SDS011;14206;50.202;10.948;2023-04-06T01:36:15;2.80;;;2.30;;
26540;SDS011;14206;50.202;10.948;2023-04-06T01:38:45;2.65;;;2.10;;
26540;SDS011;14206;50.202;10.948;2023-04-06T01:41:15;2.42;;;2.20;;
26540;SDS011;14206;50.202;10.948;2023-04-06T01:43:49;2.20;;;2.00;;
26540;SDS011;14206;50.202;10.948;2023-04-06T01:46:23;2.53;;;1.92;;
26540;SDS011;14206;50.202;10.948;2023-04-06T01:48:50;3.08;;;2.50;;
26540;SDS011;14206;50.202;10.948;2023-04-06T01:51:38;2.40;;;1.88;;
26540;SDS011;14206;50.202;10.948;2023-04-06T01:54:09;2.58;;;2.17;;
26540;SDS011;14206;50.202;10.948;2023-04-06T01:56:55;2.75;;;2.05;;
26540;SDS011;14206;50.202;10.948;2023-04-06T01:59:51;2.20;;;1.65;;
26540;SDS011;14206;50.202;10.948;2023-04-06T02:02:24;2.45;;;1.90;;
26540;SDS011;14206;50.202;10.948;2023-04-06T02:04:58;2.75;;;2.10;;
26540;SDS011;14206;50.202;10.948;2023-04-06T02:07:25;2.10;;;1.90;;
26540;SDS011;14206;50.202;10.948;2023-04-06T02:09:54;2.28;;;2.08;;
26540;SDS011;14206;50.202;10.948;2023-04-06T02:12:32;2.50;;;2.13;;
26540;SDS011;14206;50.202;10.948;2023-04-06T02:15:00;2.38;;;2.13;;
26540;SDS011;14206;50.202;10.948;2023-04-06T02:17:26;2.65;;;2.28;;
26540;SDS011;14206;50.202;10.948;2023-04-06T02:19:53;2.00;;;1.80;;
26540;SDS011;14206;50.202;10.948;2023-04-06T02:22:20;2.15;;;1.75;;
26540;SDS011;14206;50.202;10.948;2023-04-06T02:24:47;3.17;;;2.20;;
26540;SDS011;14206;50.202;10.948;2023-04-06T02:27:14;3.20;;;2.25;;
26540;SDS011;14206;50.202;10.948;2023-04-06T02:29:45;2.72;;;2.05;;
26540;SDS011;14206;50.202;10.948;2023-04-06T02:32:13;2.63;;;1.95;;
26540;SDS011;14206;50.202;10.948;2023-04-06T02:34:40;2.08;;;1.75;;
26540;SDS011;14206;50.202;10.948;2023-04-06T02:37:07;2.40;;;2.00;;
26540;SDS011;14206;50.202;10.948;2023-04-06T02:39:35;2.45;;;1.90;;
26540;SDS011;14206;50.202;10.948;2023-04-06T02:42:06;2.25;;;1.85;;
26540;SDS011;14206;50.202;10.948;2023-04-06T02:44:34;2.35;;;2.15;;
26540;SDS011;14206;50.202;10.948;2023-04-06T02:47:01;3.38;;;2.35;;
26540;SDS011;14206;50.202;10.948;2023-04-06T02:49:29;2.88;;;2.08;;
26540;SDS011;14206;50.202;10.948;2023-04-06T02:51:57;2.10;;;1.77;;
26540;SDS011;14206;50.202;10.948;2023-04-06T02:54:28;2.55;;;2.15;;
26540;SDS011;14206;50.202;10.948;2023-04-06T02:56:55;2.13;;;1.92;;
26540;SDS011;14206;50.202;10.948;2023-04-06T02:59:30;2.30;;;1.88;;
26540;SDS011;14206;50.202;10.948;2023-04-06T03:02:05;2.42;;;2.17;;
26540;SDS011;14206;50.202;10.948;2023-04-06T03:04:32;2.33;;;1.92;;
26540;SDS011;14206;50.202;10.948;2023-04-06T03:07:01;3.25;;;2.38;;
26540;SDS011;14206;50.202;10.948;2023-04-06T03:09:36;3.10;;;2.55;;
26540;SDS011;14206;50.202;10.948;2023-04-06T03:12:03;3.20;;;2.53;;
26540;SDS011;14206;50.202;10.948;2023-04-06T03:14:42;3.25;;;2.45;;
26540;SDS011;14206;50.202;10.948;2023-04-06T03:17:09;4.50;;;2.78;;
26540;SDS011;14206;50.202;10.948;2023-04-06T03:19:37;2.38;;;2.15;;
26540;SDS011;14206;50.202;10.948;2023-04-06T03:22:04;2.85;;;2.40;;
26540;SDS011;14206;50.202;10.948;2023-04-06T03:24:31;2.25;;;2.05;;
26540;SDS011;14206;50.202;10.948;2023-04-06T03:26:58;2.67;;;2.22;;
26540;SDS011;14206;50.202;10.948;2023-04-06T03:29:26;2.72;;;2.40;;
26540;SDS011;14206;50.202;10.948;2023-04-06T03:31:53;2.78;;;2.20;;
26540;SDS011;14206;50.202;10.948;2023-04-06T03:34:30;3.83;;;2.80;;
26540;SDS011;14206;50.202;10.948;2023-04-06T03:36:57;3.17;;;2.35;;
26540;SDS011;14206;50.202;10.948;2023-04-06T03:39:37;2.88;;;2.45;;
26540;SDS011;14206;50.202;10.948;2023-04-06T03:42:04;2.65;;;2.28;;
26540;SDS011;14206;50.202;10.948;2023-04-06T03:44:33;3.10;;;2.45;;
26540;SDS011;14206;50.202;10.948;2023-04-06T03:47:00;2.92;;;2.50;;
26540;SDS011;14206;50.202;10.948;2023-04-06T03:49:29;3.17;;;2.10;;
26540;SDS011;14206;50.202;10.948;2023-04-06T03:51:57;3.00;;;2.33;;
26540;SDS011;14206;50.202;10.948;2023-04-06T03:54:24;2.92;;;2.15;;
26540;SDS011;14206;50.202;10.948;2023-04-06T03:56:50;3.40;;;2.72;;
26540;SDS011;14206;50.202;10.948;2023-04-06T03:59:17;3.45;;;2.53;;
26540;SDS011;14206;50.202;10.948;2023-04-06T04:01:44;3.25;;;2.42;;
26540;SDS011;14206;50.202;10.948;2023-04-06T04:04:11;3.50;;;2.60;;
26540;SDS011;14206;50.202;10.948;2023-04-06T04:06:39;2.92;;;2.63;;
26540;SDS011;14206;50.202;10.948;2023-04-06T04:09:07;3.10;;;2.47;;
26540;SDS011;14206;50.202;10.948;2023-04-06T04:11:34;2.47;;;2.28;;
26540;SDS011;14206;50.202;10.948;2023-04-06T04:14:01;3.28;;;2.45;;
26540;SDS011;14206;50.202;10.948;2023-04-06T04:16:28;3.10;;;2.40;;
26540;SDS011;14206;50.202;10.948;2023-04-06T04:18:55;3.13;;;2.47;;
26540;SDS011;14206;50.202;10.948;2023-04-06T04:21:24;2.83;;;2.33;;
26540;SDS011;14206;50.202;10.948;2023-04-06T04:23:52;4.70;;;3.13;;
26540;SDS011;14206;50.202;10.948;2023-04-06T04:26:18;3.47;;;2.88;;
26540;SDS011;14206;50.202;10.948;2023-04-06T04:28:46;2.83;;;2.47;;
26540;SDS011;14206;50.202;10.948;2023-04-06T04:31:13;3.20;;;2.25;;
26540;SDS011;14206;50.202;10.948;2023-04-06T04:33:40;3.55;;;3.03;;
26540;SDS011;14206;50.202;10.948;2023-04-06T04:36:13;2.88;;;2.53;;
26540;SDS011;14206;50.202;10.948;2023-04-06T04:38:42;3.50;;;2.75;;
26540;SDS011;14206;50.202;10.948;2023-04-06T04:41:10;3.45;;;2.65;;
26540;SDS011;14206;50.202;10.948;2023-04-06T04:43:39;2.97;;;2.28;;
26540;SDS011;14206;50.202;10.948;2023-04-06T04:46:06;3.95;;;2.83;;
26540;SDS011;14206;50.202;10.948;2023-04-06T04:48:37;3.53;;;2.75;;
26540;SDS011;14206;50.202;10.948;2023-04-06T04:51:06;4.20;;;2.75;;
26540;SDS011;14206;50.202;10.948;2023-04-06T04:53:46;3.20;;;2.42;;
26540;SDS011;14206;50.202;10.948;2023-04-06T04:56:19;2.90;;;2.53;;
26540;SDS011;14206;50.202;10.948;2023-04-06T04:58:49;2.83;;;2.28;;
26540;SDS011;14206;50.202;10.948;2023-04-06T05:01:17;3.97;;;2.55;;
26540;SDS011;14206;50.202;10.948;2023-04-06T05:03:45;4.32;;;2.85;;
26540;SDS011;14206;50.202;10.948;2023-04-06T05:06:14;2.60;;;2.30;;
26540;SDS011;14206;50.202;10.948;2023-04-06T05:08:42;3.30;;;2.60;;
26540;SDS011;14206;50.202;10.948;2023-04-06T05:11:09;2.33;;;2.13;;
26540;SDS011;14206;50.202;10.948;2023-04-06T05:13:41;3.08;;;2.55;;
26540;SDS011;14206;50.202;10.948;2023-04-06T05:16:13;2.95;;;2.38;;
26540;SDS011;14206;50.202;10.948;2023-04-06T05:18:40;4.05;;;2.55;;
26540;SDS011;14206;50.202;10.948;2023-04-06T05:21:09;2.90;;;2.50;;
26540;SDS011;14206;50.202;10.948;2023-04-06T05:23:53;3.28;;;2.70;;
26540;SDS011;14206;50.202;10.948;2023-04-06T05:26:20;3.83;;;2.55;;
26540;SDS011;14206;50.202;10.948;2023-04-06T05:28:50;3.78;;;2.53;;
26540;SDS011;14206;50.202;10.948;2023-04-06T05:31:17;4.05;;;2.85;;
26540;SDS011;14206;50.202;10.948;2023-04-06T05:33:48;4.63;;;3.15;;
26540;SDS011;14206;50.202;10.948;2023-04-06T05:36:22;3.75;;;3.20;;
26540;SDS011;14206;50.202;10.948;2023-04-06T05:38:49;4.45;;;3.08;;
26540;SDS011;14206;50.202;10.948;2023-04-06T05:41:32;3.72;;;3.20;;
26540;SDS011;14206;50.202;10.948;2023-04-06T05:43:59;4.95;;;3.00;;
26540;SDS011;14206;50.202;10.948;2023-04-06T05:46:27;4.22;;;3.28;;
26540;SDS011;14206;50.202;10.948;2023-04-06T05:48:56;4.45;;;3.58;;
26540;SDS011;14206;50.202;10.948;2023-04-06T05:51:27;3.70;;;3.05;;
26540;SDS011;14206;50.202;10.948;2023-04-06T05:53:54;3.85;;;3.03;;
26540;SDS011;14206;50.202;10.948;2023-04-06T05:56:21;4.45;;;3.28;;
26540;SDS011;14206;50.202;10.948;2023-04-06T05:58:48;3.75;;;3.00;;
26540;SDS011;14206;50.202;10.948;2023-04-06T06:01:21;3.47;;;3.05;;
26540;SDS011;14206;50.202;10.948;2023-04-06T06:03:48;5.25;;;3.40;;
26540;SDS011;14206;50.202;10.948;2023-04-06T06:06:15;3.60;;;2.88;;
26540;SDS011;14206;50.202;10.948;2023-04-06T06:09:08;3.88;;;3.25;;
26540;SDS011;14206;50.202;10.948;2023-04-06T06:11:41;4.30;;;3.45;;
26540;SDS011;14206;50.202;10.948;2023-04-06T06:14:10;4.70;;;3.33;;
26540;SDS011;14206;50.202;10.948;2023-04-06T06:16:39;5.65;;;3.78;;
26540;SDS011;14206;50.202;10.948;2023-04-06T06:19:08;4.10;;;3.38;;
26540;SDS011;14206;50.202;10.948;2023-04-06T06:21:36;5.93;;;3.53;;
26540;SDS011;14206;50.202;10.948;2023-04-06T06:24:05;4.75;;;3.47;;
26540;SDS011;14206;50.202;10.948;2023-04-06T06:26:32;4.63;;;3.50;;
26540;SDS011;14206;50.202;10.948;2023-04-06T06:29:02;4.80;;;3.65;;
26540;SDS011;14206;50.202;10.948;2023-04-06T06:31:33;4.55;;;3.65;;
26540;SDS011;14206;50.202;10.948;2023-04-06T06:34:02;4.63;;;3.88;;
26540;SDS011;14206;50.202;10.948;2023-04-06T06:36:35;4.72;;;3.78;;
26540;SDS011;14206;50.202;10.948;2023-04-06T06:39:05;6.47;;;4.15;;
26540;SDS011;14206;50.202;10.948;2023-04-06T06:41:33;4.93;;;3.72;;
26540;SDS011;14206;50.202;10.948;2023-04-06T06:44:00;5.95;;;4.75;;
26540;SDS011;14206;50.202;10.948;2023-04-06T06:46:27;6.75;;;4.72;;
26540;SDS011;14206;50.202;10.948;2023-04-06T06:48:54;5.03;;;4.05;;
26540;SDS011;14206;50.202;10.948;2023-04-06T06:51:21;5.07;;;4.00;;
26540;SDS011;14206;50.202;10.948;2023-04-06T06:53:48;4.30;;;3.50;;
26540;SDS011;14206;50.202;10.948;2023-04-06T06:56:15;4.47;;;3.45;;
26540;SDS011;14206;50.202;10.948;2023-04-06T06:58:42;4.68;;;3.58;;
26540;SDS011;14206;50.202;10.948;2023-04-06T07:01:09;4.80;;;3.78;;
26540;SDS011;14206;50.202;10.948;2023-04-06T07:03:36;5.93;;;4.00;;
26540;SDS011;14206;50.202;10.948;2023-04-06T07:06:03;4.30;;;3.70;;
26540;SDS011;14206;50.202;10.948;2023-04-06T07:08:30;5.60;;;3.50;;
26540;SDS011;14206;50.202;10.948;2023-04-06T07:10:57;4.07;;;3.42;;
26540;SDS011;14206;50.202;10.948;2023-04-06T07:13:24;5.28;;;4.45;;
26540;SDS011;14206;50.202;10.948;2023-04-06T07:15:55;7.10;;;4.70;;
26540;SDS011;14206;50.202;10.948;2023-04-06T07:18:22;6.03;;;4.18;;
26540;SDS011;14206;50.202;10.948;2023-04-06T07:20:49;4.55;;;3.80;;
26540;SDS011;14206;50.202;10.948;2023-04-06T07:23:17;8.73;;;4.88;;
26540;SDS011;14206;50.202;10.948;2023-04-06T07:25:44;5.55;;;4.22;;
26540;SDS011;14206;50.202;10.948;2023-04-06T07:28:11;4.55;;;3.88;;
26540;SDS011;14206;50.202;10.948;2023-04-06T07:30:38;4.57;;;3.65;;
26540;SDS011;14206;50.202;10.948;2023-04-06T07:33:07;3.47;;;3.15;;
26540;SDS011;14206;50.202;10.948;2023-04-06T07:35:35;5.35;;;4.05;;
26540;SDS011;14206;50.202;10.948;2023-04-06T07:38:04;5.40;;;3.80;;
26540;SDS011;14206;50.202;10.948;2023-04-06T07:40:32;4.75;;;3.53;;
26540;SDS011;14206;50.202;10.948;2023-04-06T07:42:59;4.70;;;3.60;;
26540;SDS011;14206;50.202;10.948;2023-04-06T07:45:26;5.78;;;3.97;;
26540;SDS011;14206;50.202;10.948;2023-04-06T07:47:54;4.70;;;3.70;;
26540;SDS011;14206;50.202;10.948;2023-04-06T07:50:23;3.20;;;2.70;;
26540;SDS011;14206;50.202;10.948;2023-04-06T07:52:50;3.65;;;2.60;;
26540;SDS011;14206;50.202;10.948;2023-04-06T07:55:18;2.83;;;2.30;;
26540;SDS011;14206;50.202;10.948;2023-04-06T07:57:44;2.58;;;2.13;;
26540;SDS011;14206;50.202;10.948;2023-04-06T08:00:12;4.13;;;2.40;;
26540;SDS011;14206;50.202;10.948;2023-04-06T08:02:39;4.05;;;3.08;;
26540;SDS011;14206;50.202;10.948;2023-04-06T08:05:07;4.00;;;2.55;;
26540;SDS011;14206;50.202;10.948;2023-04-06T08:07:34;2.70;;;2.40;;
26540;SDS011;14206;50.202;10.948;2023-04-06T08:10:02;3.90;;;3.20;;
26540;SDS011;14206;50.202;10.948;2023-04-06T08:12:29;4.20;;;3.28;;
26540;SDS011;14206;50.202;10.948;2023-04-06T08:14:59;4.25;;;3.28;;
26540;SDS011;14206;50.202;10.948;2023-04-06T08:17:26;3.03;;;2.60;;
26540;SDS011;14206;50.202;10.948;2023-04-06T08:19:56;4.35;;;2.42;;
26540;SDS011;14206;50.202;10.948;2023-04-06T08:22:23;3.05;;;2.55;;
26540;SDS011;14206;50.202;10.948;2023-04-06T08:24:50;2.45;;;2.22;;
26540;SDS011;14206;50.202;10.948;2023-04-06T08:27:17;4.57;;;3.35;;
26540;SDS011;14206;50.202;10.948;2023-04-06T08:29:45;2.60;;;2.40;;
26540;SDS011;14206;50.202;10.948;2023-04-06T08:32:13;3.28;;;2.70;;
26540;SDS011;14206;50.202;10.948;2023-04-06T08:34:40;2.88;;;2.30;;
26540;SDS011;14206;50.202;10.948;2023-04-06T08:37:07;4.10;;;2.38;;
26540;SDS011;14206;50.202;10.948;2023-04-06T08:39:34;3.20;;;2.50;;
26540;SDS011;14206;50.202;10.948;2023-04-06T08:42:01;3.80;;;2.40;;
26540;SDS011;14206;50.202;10.948;2023-04-06T08:44:29;4.15;;;3.10;;
26540;SDS011;14206;50.202;10.948;2023-04-06T08:46:59;5.72;;;2.50;;
26540;SDS011;14206;50.202;10.948;2023-04-06T08:49:26;2.90;;;2.60;;
26540;SDS011;14206;50.202;10.948;2023-04-06T08:51:54;3.97;;;3.13;;
26540;SDS011;14206;50.202;10.948;2023-04-06T08:54:21;3.70;;;2.97;;
26540;SDS011;14206;50.202;10.948;2023-04-06T08:56:48;3.70;;;3.00;;
26540;SDS011;14206;50.202;10.948;2023-04-06T08:59:15;3.30;;;3.00;;
26540;SDS011;14206;50.202;10.948;2023-04-06T09:01:43;4.78;;;3.47;;
26540;SDS011;14206;50.202;10.948;2023-04-06T09:04:12;3.70;;;3.35;;
26540;SDS011;14206;50.202;10.948;2023-04-06T09:06:40;4.00;;;2.97;;
26540;SDS011;14206;50.202;10.948;2023-04-06T09:09:07;3.67;;;3.28;;
26540;SDS011;14206;50.202;10.948;2023-04-06T09:11:44;3.28;;;2.97;;
26540;SDS011;14206;50.202;10.948;2023-04-06T09:14:16;5.10;;;4.00;;
26540;SDS011;14206;50.202;10.948;2023-04-06T09:16:44;5.28;;;4.30;;
26540;SDS011;14206;50.202;10.948;2023-04-06T09:19:12;4.40;;;3.22;;
26540;SDS011;14206;50.202;10.948;2023-04-06T09:21:39;3.97;;;3.58;;
26540;SDS011;14206;50.202;10.948;2023-04-06T09:24:06;4.88;;;4.38;;
26540;SDS011;14206;50.202;10.948;2023-04-06T09:26:44;4.78;;;4.18;;
26540;SDS011;14206;50.202;10.948;2023-04-06T09:29:22;6.97;;;4.63;;
26540;SDS011;14206;50.202;10.948;2023-04-06T09:31:50;5.80;;;5.18;;
26540;SDS011;14206;50.202;10.948;2023-04-06T09:34:21;4.60;;;4.07;;
26540;SDS011;14206;50.202;10.948;2023-04-06T09:36:49;5.68;;;4.45;;
26540;SDS011;14206;50.202;10.948;2023-04-06T09:39:20;4.50;;;3.92;;
26540;SDS011;14206;50.202;10.948;2023-04-06T09:41:53;4.80;;;4.18;;
26540;SDS011;14206;50.202;10.948;2023-04-06T09:44:22;4.50;;;3.88;;
26540;SDS011;14206;50.202;10.948;2023-04-06T09:46:50;4.25;;;3.63;;
26540;SDS011;14206;50.202;10.948;2023-04-06T09:49:27;7.00;;;4.78;;
26540;SDS011;14206;50.202;10.948;2023-04-06T09:52:00;4.63;;;4.20;;
26540;SDS011;14206;50.202;10.948;2023-04-06T09:54:28;5.00;;;4.53;;
26540;SDS011;14206;50.202;10.948;2023-04-06T10:05:16;5.47;;;4.13;;
26540;SDS011;14206;50.202;10.948;2023-04-06T10:07:53;4.40;;;4.00;;
26540;SDS011;14206;50.202;10.948;2023-04-06T10:10:27;5.22;;;4.72;;
26540;SDS011;14206;50.202;10.948;2023-04-06T10:12:54;4.10;;;3.70;;
26540;SDS011;14206;50.202;10.948;2023-04-06T10:15:22;4.28;;;3.88;;
26540;SDS011;14206;50.202;10.948;2023-04-06T10:17:50;4.90;;;4.40;;
26540;SDS011;14206;50.202;10.948;2023-04-06T10:20:19;5.78;;;5.10;;
26540;SDS011;14206;50.202;10.948;2023-04-06T10:25:29;4.00;;;3.60;;
26540;SDS011;14206;50.202;10.948;2023-04-06T10:28:07;4.53;;;3.92;;
26540;SDS011;14206;50.202;10.948;2023-04-06T10:30:36;3.97;;;3.60;;
26540;SDS011;14206;50.202;10.948;2023-04-06T10:33:16;4.20;;;3.80;;
26540;SDS011;14206;50.202;10.948;2023-04-06T10:35:44;6.50;;;4.32;;
26540;SDS011;14206;50.202;10.948;2023-04-06T10:38:12;5.15;;;4.25;;
26540;SDS011;14206;50.202;10.948;2023-04-06T10:40:46;4.20;;;3.70;;
26540;SDS011;14206;50.202;10.948;2023-04-06T10:43:19;4.10;;;3.65;;
26540;SDS011;14206;50.202;10.948;2023-04-06T10:45:56;4.47;;;4.03;;
26540;SDS011;14206;50.202;10.948;2023-04-06T10:48:36;4.82;;;4.03;;
26540;SDS011;14206;50.202;10.948;2023-04-06T10:51:11;4.30;;;3.90;;
26540;SDS011;14206;50.202;10.948;2023-04-06T10:53:42;4.38;;;3.97;;
26540;SDS011;14206;50.202;10.948;2023-04-06T10:56:15;3.30;;;2.97;;
26540;SDS011;14206;50.202;10.948;2023-04-06T10:58:46;3.85;;;3.20;;
26540;SDS011;14206;50.202;10.948;2023-04-06T11:01:18;3.08;;;2.78;;
26540;SDS011;14206;50.202;10.948;2023-04-06T11:03:47;5.03;;;4.43;;
26540;SDS011;14206;50.202;10.948;2023-04-06T11:08:51;4.32;;;3.58;;
26540;SDS011;14206;50.202;10.948;2023-04-06T11:11:20;3.78;;;3.45;;
26540;SDS011;14206;50.202;10.948;2023-04-06T11:13:49;5.00;;;3.83;;
26540;SDS011;14206;50.202;10.948;2023-04-06T11:21:32;4.53;;;4.13;;
26540;SDS011;14206;50.202;10.948;2023-04-06T11:24:11;3.80;;;3.40;;
26540;SDS011;14206;50.202;10.948;2023-04-06T11:26:39;4.88;;;4.15;;
26540;SDS011;14206;50.202;10.948;2023-04-06T11:29:18;6.68;;;4.22;;
26540;SDS011;14206;50.202;10.948;2023-04-06T11:31:50;4.43;;;4.03;;
26540;SDS011;14206;50.202;10.948;2023-04-06T11:34:20;4.65;;;3.90;;
26540;SDS011;14206;50.202;10.948;2023-04-06T11:36:49;3.60;;;3.25;;
26540;SDS011;14206;50.202;10.948;2023-04-06T11:39:23;3.88;;;3.35;;
26540;SDS011;14206;50.202;10.948;2023-04-06T11:41:53;3.33;;;3.03;;
26540;SDS011;14206;50.202;10.948;2023-04-06T11:44:38;6.07;;;5.45;;
26540;SDS011;14206;50.202;10.948;2023-04-06T11:47:07;4.43;;;3.75;;
26540;SDS011;14206;50.202;10.948;2023-04-06T11:49:39;4.80;;;4.30;;
26540;SDS011;14206;50.202;10.948;2023-04-06T11:52:21;4.45;;;3.78;;
26540;SDS011;14206;50.202;10.948;2023-04-06T11:54:50;5.57;;;4.05;;
26540;SDS011;14206;50.202;10.948;2023-04-06T11:57:18;3.72;;;3.22;;
26540;SDS011;14206;50.202;10.948;2023-04-06T11:59:46;4.93;;;4.43;;
26540;SDS011;14206;50.202;10.948;2023-04-06T12:02:13;4.88;;;4.32;;
26540;SDS011;14206;50.202;10.948;2023-04-06T12:04:40;3.83;;;3.40;;
26540;SDS011;14206;50.202;10.948;2023-04-06T12:07:07;3.50;;;3.20;;
26540;SDS011;14206;50.202;10.948;2023-04-06T12:09:34;4.65;;;4.25;;
26540;SDS011;14206;50.202;10.948;2023-04-06T12:12:02;4.03;;;3.40;;
26540;SDS011;14206;50.202;10.948;2023-04-06T12:14:29;6.22;;;5.63;;
26540;SDS011;14206;50.202;10.948;2023-04-06T12:16:57;6.93;;;6.22;;
26540;SDS011;14206;50.202;10.948;2023-04-06T12:19:24;7.03;;;5.05;;
26540;SDS011;14206;50.202;10.948;2023-04-06T12:21:52;5.35;;;4.38;;
26540;SDS011;14206;50.202;10.948;2023-04-06T12:24:20;6.78;;;4.88;;
26540;SDS011;14206;50.202;10.948;2023-04-06T12:26:47;6.88;;;5.80;;
26540;SDS011;14206;50.202;10.948;2023-04-06T12:29:19;6.90;;;5.95;;
26540;SDS011;14206;50.202;10.948;2023-04-06T12:31:46;4.47;;;4.07;;
26540;SDS011;14206;50.202;10.948;2023-04-06T12:34:13;5.32;;;4.82;;
26540;SDS011;14206;50.202;10.948;2023-04-06T12:36:40;6.35;;;5.20;;
26540;SDS011;14206;50.202;10.948;2023-04-06T12:39:07;3.95;;;3.50;;
26540;SDS011;14206;50.202;10.948;2023-04-06T12:41:34;3.67;;;3.38;;
26540;SDS011;14206;50.202;10.948;2023-04-06T12:44:01;4.10;;;3.17;;
26540;SDS011;14206;50.202;10.948;2023-04-06T12:46:29;5.03;;;4.30;;
26540;SDS011;14206;50.202;10.948;2023-04-06T12:48:57;5.80;;;5.03;;
26540;SDS011;14206;50.202;10.948;2023-04-06T12:51:27;7.38;;;5.63;;
26540;SDS011;14206;50.202;10.948;2023-04-06T12:53:54;7.60;;;6.10;;
26540;SDS011;14206;50.202;10.948;2023-04-06T12:56:21;5.88;;;5.28;;
26540;SDS011;14206;50.202;10.948;2023-04-06T12:58:49;6.70;;;4.20;;
26540;SDS011;14206;50.202;10.948;2023-04-06T13:01:17;5.93;;;4.80;;
26540;SDS011;14206;50.202;10.948;2023-04-06T13:03:44;7.00;;;6.07;;
26540;SDS011;14206;50.202;10.948;2023-04-06T13:06:11;4.88;;;4.38;;
26540;SDS011;14206;50.202;10.948;2023-04-06T13:08:39;6.28;;;5.47;;
26540;SDS011;14206;50.202;10.948;2023-04-06T13:11:07;5.65;;;4.93;;
26540;SDS011;14206;50.202;10.948;2023-04-06T13:13:36;7.90;;;5.50;;
26540;SDS011;14206;50.202;10.948;2023-04-06T13:16:04;7.93;;;6.53;;
26540;SDS011;14206;50.202;10.948;2023-04-06T13:18:33;6.68;;;5.15;;
26540;SDS011;14206;50.202;10.948;2023-04-06T13:21:04;8.05;;;5.80;;
26540;SDS011;14206;50.202;10.948;2023-04-06T13:23:32;4.55;;;4.00;;
26540;SDS011;14206;50.202;10.948;2023-04-06T13:26:04;8.18;;;6.18;;
26540;SDS011;14206;50.202;10.948;2023-04-06T13:28:32;6.78;;;5.88;;
26540;SDS011;14206;50.202;10.948;2023-04-06T13:31:01;5.15;;;4.30;;
26540;SDS011;14206;50.202;10.948;2023-04-06T13:33:29;8.05;;;6.63;;
26540;SDS011;14206;50.202;10.948;2023-04-06T13:35:57;4.93;;;4.22;;
26540;SDS011;14206;50.202;10.948;2023-04-06T13:38:24;4.85;;;4.28;;
26540;SDS011;14206;50.202;10.948;2023-04-06T13:40:51;5.45;;;4.40;;
26540;SDS011;14206;50.202;10.948;2023-04-06T13:43:18;4.30;;;3.90;;
26540;SDS011;14206;50.202;10.948;2023-04-06T13:45:50;5.93;;;4.85;;
26540;SDS011;14206;50.202;10.948;2023-04-06T13:48:17;5.80;;;4.72;;
26540;SDS011;14206;50.202;10.948;2023-04-06T13:50:44;7.40;;;5.00;;
26540;SDS011;14206;50.202;10.948;2023-04-06T13:53:12;5.65;;;3.70;;
26540;SDS011;14206;50.202;10.948;2023-04-06T13:55:39;4.32;;;3.38;;
26540;SDS011;14206;50.202;10.948;2023-04-06T13:58:07;8.75;;;6.63;;
26540;SDS011;14206;50.202;10.948;2023-04-06T14:00:34;4.18;;;3.70;;
26540;SDS011;14206;50.202;10.948;2023-04-06T14:03:01;4.18;;;3.38;;
26540;SDS011;14206;50.202;10.948;2023-04-06T14:05:32;3.35;;;3.00;;
26540;SDS011;14206;50.202;10.948;2023-04-06T14:07:59;5.25;;;4.25;;
26540;SDS011;14206;50.202;10.948;2023-04-06T14:10:26;3.13;;;2.80;;
26540;SDS011;14206;50.202;10.948;2023-04-06T14:12:54;3.78;;;3.33;;
26540;SDS011;14206;50.202;10.948;2023-04-06T14:15:21;6.85;;;5.72;;
26540;SDS011;14206;50.202;10.948;2023-04-06T14:17:49;5.30;;;4.55;;
26540;SDS011;14206;50.202;10.948;2023-04-06T14:20:16;7.97;;;4.90;;
26540;SDS011;14206;50.202;10.948;2023-04-06T14:22:43;6.53;;;5.75;;
26540;SDS011;14206;50.202;10.948;2023-04-06T14:25:10;6.10;;;4.88;;
26540;SDS011;14206;50.202;10.948;2023-04-06T14:27:37;6.70;;;5.68;;
26540;SDS011;14206;50.202;10.948;2023-04-06T14:30:05;5.32;;;4.70;;
26540;SDS011;14206;50.202;10.948;2023-04-06T14:32:32;6.90;;;5.93;;
26540;SDS011;14206;50.202;10.948;2023-04-06T14:34:59;9.55;;;6.78;;
26540;SDS011;14206;50.202;10.948;2023-04-06T14:37:26;7.70;;;6.72;;
26540;SDS011;14206;50.202;10.948;2023-04-06T14:39:53;8.43;;;7.32;;
26540;SDS011;14206;50.202;10.948;2023-04-06T14:42:19;8.43;;;6.70;;
26540;SDS011;14206;50.202;10.948;2023-04-06T14:44:46;8.10;;;6.45;;
26540;SDS011;14206;50.202;10.948;2023-04-06T14:47:15;9.13;;;7.07;;
26540;SDS011;14206;50.202;10.948;2023-04-06T14:49:50;10.02;;;7.30;;
26540;SDS011;14206;50.202;10.948;2023-04-06T14:52:17;9.82;;;7.07;;
26540;SDS011;14206;50.202;10.948;2023-04-06T14:54:44;9.40;;;7.85;;
26540;SDS011;14206;50.202;10.948;2023-04-06T14:57:11;8.98;;;6.80;;
26540;SDS011;14206;50.202;10.948;2023-04-06T14:59:38;8.05;;;6.07;;
26540;SDS011;14206;50.202;10.948;2023-04-06T15:02:06;9.13;;;7.10;;
26540;SDS011;14206;50.202;10.948;2023-04-06T15:04:33;7.18;;;6.07;;